sensor_id;sensor_type;location;lat;lon;timestamp;pressure;altitude;pressure_sealevel;temperature;humidity
6024;BME280;3040;42.654;23.296;2024-03-23T00:51:37;94260.34;;;8.21;54.22
6024;BME280;3040;42.654;23.296;2024-03-23T00:54:03;94259.69;;;8.24;54.98
6024;BME280;3040;42.654;23.296;2024-03-23T00:56:29;94253.16;;;7.92;55.82
6024;BME280;3040;42.654;23.296;2024-03-23T00:58:55;94244.50;;;7.45;57.66
6024;BME280;3040;42.654;23.296;2024-03-23T01:01:22;94257.00;;;7.74;56.86
6024;BME280;3040;42.654;23.296;2024-03-23T01:03:48;94253.72;;;7.77;56.05
6024;BME280;3040;42.654;23.296;2024-03-23T01:06:14;94248.88;;;7.79;55.70
6024;BME280;3040;42.654;23.296;2024-03-23T01:08:42;94243.34;;;7.63;55.88
6024;BME280;3040;42.654;23.296;2024-03-23T01:11:08;94244.44;;;7.62;55.41
6024;BME280;3040;42.654;23.296;2024-03-23T01:13:34;94245.63;;;7.73;55.70
6024;BME280;3040;42.654;23.296;2024-03-23T01:16:01;94245.19;;;7.71;54.78
6024;BME280;3040;42.654;23.296;2024-03-23T01:18:27;94206.88;;;7.31;54.77
6024;BME280;3040;42.654;23.296;2024-03-23T01:20:54;94246.63;;;6.88;56.15
6024;BME280;3040;42.654;23.296;2024-03-23T01:23:20;94231.84;;;6.95;56.42
6024;BME280;3040;42.654;23.296;2024-03-23T01:25:52;94246.72;;;7.26;55.52
6024;BME280;3040;42.654;23.296;2024-03-23T01:28:18;94251.97;;;7.43;55.80
6024;BME280;3040;42.654;23.296;2024-03-23T01:30:45;94246.63;;;7.60;55.44
6024;BME280;3040;42.654;23.296;2024-03-23T01:33:11;94126.94;;;6.79;55.37
6024;BME280;3040;42.654;23.296;2024-03-23T01:35:38;94247.19;;;7.74;54.67
6024;BME280;3040;42.654;23.296;2024-03-23T01:38:04;94247.28;;;7.87;55.24
6024;BME280;3040;42.654;23.296;2024-03-23T01:40:31;94243.47;;;7.96;55.09
6024;BME280;3040;42.654;23.296;2024-03-23T01:43:03;94239.97;;;7.84;54.94
6024;BME280;3040;42.654;23.296;2024-03-23T01:45:31;94245.22;;;7.92;54.56
6024;BME280;3040;42.654;23.296;2024-03-23T01:47:57;94144.03;;;7.28;53.90
6024;BME280;3040;42.654;23.296;2024-03-23T01:50:24;94243.06;;;7.86;53.54
6024;BME280;3040;42.654;23.296;2024-03-23T01:52:50;94213.91;;;7.65;53.51
6024;BME280;3040;42.654;23.296;2024-03-23T01:55:17;94237.84;;;7.77;53.30
6024;BME280;3040;42.654;23.296;2024-03-23T01:57:43;94250.84;;;7.91;52.92
6024;BME280;3040;42.654;23.296;2024-03-23T02:00:13;94238.28;;;7.79;52.19
6024;BME280;3040;42.654;23.296;2024-03-23T02:02:42;94246.19;;;7.50;53.30
6024;BME280;3040;42.654;23.296;2024-03-23T02:05:09;94237.03;;;7.47;53.75
6024;BME280;3040;42.654;23.296;2024-03-23T02:07:35;94239.31;;;6.93;56.09
6024;BME280;3040;42.654;23.296;2024-03-23T02:10:02;94228.31;;;6.48;57.20
6024;BME280;3040;42.654;23.296;2024-03-23T02:12:28;94247.72;;;6.95;56.70
6024;BME280;3040;42.654;23.296;2024-03-23T02:14:55;94247.69;;;7.13;55.91
6024;BME280;3040;42.654;23.296;2024-03-23T02:17:22;94251.09;;;7.22;55.89
6024;BME280;3040;42.654;23.296;2024-03-23T02:19:48;94249.50;;;7.38;56.13
6024;BME280;3040;42.654;23.296;2024-03-23T02:22:14;94129.31;;;6.63;55.39
6024;BME280;3040;42.654;23.296;2024-03-23T02:24:42;94253.22;;;7.37;54.98
6024;BME280;3040;42.654;23.296;2024-03-23T02:27:08;94248.63;;;7.17;54.87
6024;BME280;3040;42.654;23.296;2024-03-23T02:29:35;94256.91;;;6.64;56.70
6024;BME280;3040;42.654;23.296;2024-03-23T02:32:01;94127.47;;;5.86;57.16
6024;BME280;3040;42.654;23.296;2024-03-23T02:34:27;94255.34;;;6.88;56.81
6024;BME280;3040;42.654;23.296;2024-03-23T02:36:53;94255.31;;;7.06;55.45
6024;BME280;3040;42.654;23.296;2024-03-23T02:39:20;94252.81;;;7.18;54.88
6024;BME280;3040;42.654;23.296;2024-03-23T02:41:47;94243.97;;;7.14;54.73
6024;BME280;3040;42.654;23.296;2024-03-23T02:44:14;94252.97;;;7.13;54.40
6024;BME280;3040;42.654;23.296;2024-03-23T02:46:39;94224.69;;;7.05;54.26
6024;BME280;3040;42.654;23.296;2024-03-23T02:49:07;94244.69;;;7.31;54.09
6024;BME280;3040;42.654;23.296;2024-03-23T02:51:33;94245.59;;;7.35;53.76
6024;BME280;3040;42.654;23.296;2024-03-23T02:54:00;94250.41;;;7.42;53.26
6024;BME280;3040;42.654;23.296;2024-03-23T02:56:26;94242.31;;;7.47;52.99
6024;BME280;3040;42.654;23.296;2024-03-23T02:58:54;94240.59;;;7.51;52.91
6024;BME280;3040;42.654;23.296;2024-03-23T03:01:19;94242.09;;;7.23;53.21
6024;BME280;3040;42.654;23.296;2024-03-23T03:03:46;94235.63;;;6.77;55.73
6024;BME280;3040;42.654;23.296;2024-03-23T03:06:22;94239.50;;;6.37;57.59
6024;BME280;3040;42.654;23.296;2024-03-23T03:08:49;94227.72;;;6.43;57.79
6024;BME280;3040;42.654;23.296;2024-03-23T03:11:15;94244.03;;;6.79;56.72
6024;BME280;3040;42.654;23.296;2024-03-23T03:13:41;94223.78;;;6.83;55.88
6024;BME280;3040;42.654;23.296;2024-03-23T03:16:09;94244.59;;;7.11;56.17
6024;BME280;3040;42.654;23.296;2024-03-23T03:18:36;94241.63;;;7.21;55.40
6024;BME280;3040;42.654;23.296;2024-03-23T03:21:02;94239.25;;;7.28;55.93
6024;BME280;3040;42.654;23.296;2024-03-23T03:23:30;94252.94;;;7.30;55.67
6024;BME280;3040;42.654;23.296;2024-03-23T03:25:56;94250.91;;;7.35;56.09
6024;BME280;3040;42.654;23.296;2024-03-23T03:28:23;94249.03;;;7.36;55.41
6024;BME280;3040;42.654;23.296;2024-03-23T03:30:49;94252.16;;;7.38;55.45
6024;BME280;3040;42.654;23.296;2024-03-23T03:33:17;94240.47;;;7.39;55.08
6024;BME280;3040;42.654;23.296;2024-03-23T03:35:43;94246.06;;;7.46;55.37
6024;BME280;3040;42.654;23.296;2024-03-23T03:38:11;94252.44;;;7.45;55.69
6024;BME280;3040;42.654;23.296;2024-03-23T03:40:36;94246.69;;;7.43;55.05
6024;BME280;3040;42.654;23.296;2024-03-23T03:43:03;94257.34;;;7.09;55.28
6024;BME280;3040;42.654;23.296;2024-03-23T03:45:29;94225.06;;;6.43;56.58
6024;BME280;3040;42.654;23.296;2024-03-23T03:47:56;94246.34;;;6.46;56.97
6024;BME280;3040;42.654;23.296;2024-03-23T03:50:23;94249.59;;;6.52;57.13
6024;BME280;3040;42.654;23.296;2024-03-23T03:52:50;94247.59;;;6.58;57.66
6024;BME280;3040;42.654;23.296;2024-03-23T03:55:16;94250.84;;;6.63;57.32
6024;BME280;3040;42.654;23.296;2024-03-23T03:57:43;94210.63;;;6.32;57.34
6024;BME280;3040;42.654;23.296;2024-03-23T04:00:10;94252.25;;;6.69;57.39
6024;BME280;3040;42.654;23.296;2024-03-23T04:02:37;94253.19;;;6.73;57.34
6024;BME280;3040;42.654;23.296;2024-03-23T04:05:03;94247.91;;;6.73;57.84
6024;BME280;3040;42.654;23.296;2024-03-23T04:07:31;94242.16;;;6.71;57.95
6024;BME280;3040;42.654;23.296;2024-03-23T04:09:57;94150.63;;;6.15;57.97
6024;BME280;3040;42.654;23.296;2024-03-23T04:12:24;94244.31;;;6.86;57.35
6024;BME280;3040;42.654;23.296;2024-03-23T04:14:49;94221.00;;;6.71;57.46
6024;BME280;3040;42.654;23.296;2024-03-23T04:17:16;94251.28;;;7.00;56.87
6024;BME280;3040;42.654;23.296;2024-03-23T04:19:42;94254.88;;;7.04;56.61
6024;BME280;3040;42.654;23.296;2024-03-23T04:22:09;94259.22;;;7.00;56.09
6024;BME280;3040;42.654;23.296;2024-03-23T04:24:36;94204.69;;;6.18;57.61
6024;BME280;3040;42.654;23.296;2024-03-23T04:27:03;94259.06;;;5.79;60.28
6024;BME280;3040;42.654;23.296;2024-03-23T04:29:28;94237.72;;;5.89;60.17
6024;BME280;3040;42.654;23.296;2024-03-23T04:31:55;94255.34;;;6.20;59.97
6024;BME280;3040;42.654;23.296;2024-03-23T04:34:21;94253.63;;;6.24;59.57
6024;BME280;3040;42.654;23.296;2024-03-23T04:36:49;94256.44;;;6.36;59.67
6024;BME280;3040;42.654;23.296;2024-03-23T04:39:15;94261.88;;;6.39;59.84
6024;BME280;3040;42.654;23.296;2024-03-23T04:41:43;94269.47;;;6.24;60.01
6024;BME280;3040;42.654;23.296;2024-03-23T04:44:10;94264.69;;;6.43;59.80
6024;BME280;3040;42.654;23.296;2024-03-23T04:46:36;94262.66;;;6.40;59.57
6024;BME280;3040;42.654;23.296;2024-03-23T04:49:03;94241.84;;;6.30;59.98
6024;BME280;3040;42.654;23.296;2024-03-23T04:51:35;94272.47;;;6.57;59.41
6024;BME280;3040;42.654;23.296;2024-03-23T04:54:03;94274.50;;;6.68;58.59
6024;BME280;3040;42.654;23.296;2024-03-23T04:56:30;94266.09;;;6.83;58.55
6024;BME280;3040;42.654;23.296;2024-03-23T04:58:58;94275.06;;;7.00;58.73
6024;BME280;3040;42.654;23.296;2024-03-23T05:01:26;94251.44;;;6.94;57.79
6024;BME280;3040;42.654;23.296;2024-03-23T05:03:53;94273.19;;;7.17;57.33
6024;BME280;3040;42.654;23.296;2024-03-23T05:06:19;94271.94;;;7.23;57.62
6024;BME280;3040;42.654;23.296;2024-03-23T05:08:45;94254.38;;;7.19;57.31
6024;BME280;3040;42.654;23.296;2024-03-23T05:11:11;94208.25;;;6.73;57.69
6024;BME280;3040;42.654;23.296;2024-03-23T05:13:38;94271.31;;;7.18;58.11
6024;BME280;3040;42.654;23.296;2024-03-23T05:16:05;94279.25;;;7.26;57.21
6024;BME280;3040;42.654;23.296;2024-03-23T05:18:32;94271.13;;;7.40;57.12
6024;BME280;3040;42.654;23.296;2024-03-23T05:20:58;94268.63;;;7.44;57.88
6024;BME280;3040;42.654;23.296;2024-03-23T05:23:26;94263.13;;;7.57;57.75
6024;BME280;3040;42.654;23.296;2024-03-23T05:25:52;94255.31;;;7.69;56.64
6024;BME280;3040;42.654;23.296;2024-03-23T05:28:18;94256.97;;;7.83;57.38
6024;BME280;3040;42.654;23.296;2024-03-23T05:30:50;94242.16;;;7.82;57.87
6024;BME280;3040;42.654;23.296;2024-03-23T05:33:18;94255.28;;;8.07;57.23
6024;BME280;3040;42.654;23.296;2024-03-23T05:35:44;94256.41;;;7.98;57.62
6024;BME280;3040;42.654;23.296;2024-03-23T05:38:10;94270.66;;;8.14;58.00
6024;BME280;3040;42.654;23.296;2024-03-23T05:40:36;94252.06;;;8.31;57.56
6024;BME280;3040;42.654;23.296;2024-03-23T05:43:05;94252.88;;;8.44;57.27
6024;BME280;3040;42.654;23.296;2024-03-23T05:45:31;94264.25;;;8.44;56.68
6024;BME280;3040;42.654;23.296;2024-03-23T05:47:58;94256.31;;;8.44;56.93
6024;BME280;3040;42.654;23.296;2024-03-23T05:50:25;94263.03;;;8.63;57.03
6024;BME280;3040;42.654;23.296;2024-03-23T05:52:52;94265.06;;;8.66;56.73
6024;BME280;3040;42.654;23.296;2024-03-23T05:55:17;94270.22;;;8.83;56.39
6024;BME280;3040;42.654;23.296;2024-03-23T05:57:44;94265.44;;;8.97;55.99
6024;BME280;3040;42.654;23.296;2024-03-23T06:00:11;94269.09;;;9.05;55.34
6024;BME280;3040;42.654;23.296;2024-03-23T06:02:42;94260.59;;;9.11;55.11
6024;BME280;3040;42.654;23.296;2024-03-23T06:05:10;94262.16;;;9.12;55.44
6024;BME280;3040;42.654;23.296;2024-03-23T06:07:38;94270.56;;;9.14;55.88
6024;BME280;3040;42.654;23.296;2024-03-23T06:10:04;94267.25;;;9.17;55.48
6024;BME280;3040;42.654;23.296;2024-03-23T06:12:32;94251.56;;;9.12;55.11
6024;BME280;3040;42.654;23.296;2024-03-23T06:14:57;94261.59;;;9.39;55.10
6024;BME280;3040;42.654;23.296;2024-03-23T06:17:24;94249.78;;;9.49;55.50
6024;BME280;3040;42.654;23.296;2024-03-23T06:19:50;94257.84;;;9.65;54.93
6024;BME280;3040;42.654;23.296;2024-03-23T06:22:17;94255.91;;;9.74;53.93
6024;BME280;3040;42.654;23.296;2024-03-23T06:24:44;94254.91;;;9.91;54.57
6024;BME280;3040;42.654;23.296;2024-03-23T06:27:11;94160.50;;;9.32;52.97
6024;BME280;3040;42.654;23.296;2024-03-23T06:29:36;94161.16;;;9.29;53.11
6024;BME280;3040;42.654;23.296;2024-03-23T06:32:03;94252.56;;;9.89;53.69
6024;BME280;3040;42.654;23.296;2024-03-23T06:34:29;94257.88;;;10.13;54.21
6024;BME280;3040;42.654;23.296;2024-03-23T06:36:56;94260.78;;;10.33;53.45
6024;BME280;3040;42.654;23.296;2024-03-23T06:39:22;94264.75;;;10.51;53.30
6024;BME280;3040;42.654;23.296;2024-03-23T06:41:53;94242.38;;;10.52;52.33
6024;BME280;3040;42.654;23.296;2024-03-23T06:44:19;94263.09;;;10.86;51.58
6024;BME280;3040;42.654;23.296;2024-03-23T06:46:46;94259.88;;;10.93;51.56
6024;BME280;3040;42.654;23.296;2024-03-23T06:49:14;94261.66;;;11.17;51.52
6024;BME280;3040;42.654;23.296;2024-03-23T06:51:41;94255.63;;;11.32;49.58
6024;BME280;3040;42.654;23.296;2024-03-23T06:54:06;94248.94;;;11.54;48.36
6024;BME280;3040;42.654;23.296;2024-03-23T06:56:33;94255.75;;;11.67;48.45
6024;BME280;3040;42.654;23.296;2024-03-23T06:59:01;94253.53;;;11.85;48.44
6024;BME280;3040;42.654;23.296;2024-03-23T07:01:28;94252.84;;;11.88;47.51
6024;BME280;3040;42.654;23.296;2024-03-23T07:03:55;94247.00;;;11.98;47.48
6024;BME280;3040;42.654;23.296;2024-03-23T07:06:22;94227.38;;;12.06;47.19
6024;BME280;3040;42.654;23.296;2024-03-23T07:08:47;94238.63;;;12.31;46.38
6024;BME280;3040;42.654;23.296;2024-03-23T07:11:18;94246.44;;;12.39;45.61
6024;BME280;3040;42.654;23.296;2024-03-23T07:13:44;94242.66;;;12.40;45.82
6024;BME280;3040;42.654;23.296;2024-03-23T07:16:13;94242.81;;;12.47;45.79
6024;BME280;3040;42.654;23.296;2024-03-23T07:18:38;94236.94;;;12.57;45.29
6024;BME280;3040;42.654;23.296;2024-03-23T07:21:05;94235.69;;;12.71;45.66
6024;BME280;3040;42.654;23.296;2024-03-23T07:23:32;94236.72;;;12.85;44.32
6024;BME280;3040;42.654;23.296;2024-03-23T07:26:00;94234.56;;;12.91;44.80
6024;BME280;3040;42.654;23.296;2024-03-23T07:28:26;94226.56;;;12.91;44.29
6024;BME280;3040;42.654;23.296;2024-03-23T07:31:03;94211.09;;;13.00;43.86
6024;BME280;3040;42.654;23.296;2024-03-23T07:33:31;94221.38;;;13.17;42.51
6024;BME280;3040;42.654;23.296;2024-03-23T07:35:58;94226.56;;;12.91;44.16
6024;BME280;3040;42.654;23.296;2024-03-23T07:38:26;94223.69;;;12.80;43.38
6024;BME280;3040;42.654;23.296;2024-03-23T07:41:02;94215.38;;;12.85;43.25
6024;BME280;3040;42.654;23.296;2024-03-23T07:43:28;94220.19;;;12.95;43.48
6024;BME280;3040;42.654;23.296;2024-03-23T07:45:55;94210.75;;;13.21;43.33
6024;BME280;3040;42.654;23.296;2024-03-23T07:48:21;94229.59;;;13.51;42.75
6024;BME280;3040;42.654;23.296;2024-03-23T07:50:58;94116.66;;;13.08;42.74
6024;BME280;3040;42.654;23.296;2024-03-23T07:53:23;94209.91;;;14.04;43.33
6024;BME280;3040;42.654;23.296;2024-03-23T07:55:54;94226.22;;;14.22;44.52
6024;BME280;3040;42.654;23.296;2024-03-23T07:58:20;94210.94;;;13.73;43.64
6024;BME280;3040;42.654;23.296;2024-03-23T08:00:46;94217.06;;;14.00;44.12
6024;BME280;3040;42.654;23.296;2024-03-23T08:03:13;94211.44;;;14.32;44.31
6024;BME280;3040;42.654;23.296;2024-03-23T08:05:39;94188.06;;;14.28;46.79
6024;BME280;3040;42.654;23.296;2024-03-23T08:08:07;94206.59;;;14.14;40.70
6024;BME280;3040;42.654;23.296;2024-03-23T08:10:33;94213.94;;;14.44;41.04
6024;BME280;3040;42.654;23.296;2024-03-23T08:13:00;94212.91;;;14.82;40.43
6024;BME280;3040;42.654;23.296;2024-03-23T08:15:26;94129.63;;;14.01;38.91
6024;BME280;3040;42.654;23.296;2024-03-23T08:17:52;94211.91;;;14.93;38.31
6024;BME280;3040;42.654;23.296;2024-03-23T08:20:18;94224.47;;;15.23;37.26
6024;BME280;3040;42.654;23.296;2024-03-23T08:22:45;94202.69;;;15.61;38.21
6024;BME280;3040;42.654;23.296;2024-03-23T08:25:12;94205.34;;;15.61;36.12
6024;BME280;3040;42.654;23.296;2024-03-23T08:27:39;94208.41;;;15.23;37.24
6024;BME280;3040;42.654;23.296;2024-03-23T08:30:05;94178.69;;;14.68;38.04
6024;BME280;3040;42.654;23.296;2024-03-23T08:32:32;94206.59;;;15.30;37.99
6024;BME280;3040;42.654;23.296;2024-03-23T08:34:58;94192.03;;;15.68;37.85
6024;BME280;3040;42.654;23.296;2024-03-23T08:37:25;94178.28;;;15.73;37.55
6024;BME280;3040;42.654;23.296;2024-03-23T08:39:51;94187.06;;;15.33;36.53
6024;BME280;3040;42.654;23.296;2024-03-23T08:42:19;94177.06;;;15.27;36.26
6024;BME280;3040;42.654;23.296;2024-03-23T08:44:46;94179.03;;;15.70;37.16
6024;BME280;3040;42.654;23.296;2024-03-23T08:47:15;94176.28;;;16.11;36.85
6024;BME280;3040;42.654;23.296;2024-03-23T08:49:40;94180.66;;;15.85;35.23
6024;BME280;3040;42.654;23.296;2024-03-23T08:52:07;94172.25;;;15.83;35.27
6024;BME280;3040;42.654;23.296;2024-03-23T08:54:33;94173.53;;;15.56;36.42
6024;BME280;3040;42.654;23.296;2024-03-23T08:57:00;94175.53;;;16.14;34.78
6024;BME280;3040;42.654;23.296;2024-03-23T08:59:27;94164.41;;;16.74;35.75
6024;BME280;3040;42.654;23.296;2024-03-23T09:01:54;94166.84;;;17.14;33.58
6024;BME280;3040;42.654;23.296;2024-03-23T09:04:20;94154.97;;;17.36;33.27
6024;BME280;3040;42.654;23.296;2024-03-23T09:06:47;94163.13;;;17.65;32.87
6024;BME280;3040;42.654;23.296;2024-03-23T09:09:13;94138.91;;;17.79;32.64
6024;BME280;3040;42.654;23.296;2024-03-23T09:11:39;94155.41;;;18.38;31.98
6024;BME280;3040;42.654;23.296;2024-03-23T09:14:05;94157.22;;;18.76;30.82
6024;BME280;3040;42.654;23.296;2024-03-23T09:16:33;94152.81;;;19.18;30.70
6024;BME280;3040;42.654;23.296;2024-03-23T09:18:59;94146.16;;;19.40;30.83
6024;BME280;3040;42.654;23.296;2024-03-23T09:21:26;94138.66;;;19.65;29.14
6024;BME280;3040;42.654;23.296;2024-03-23T09:23:51;94130.75;;;19.92;28.39
6024;BME280;3040;42.654;23.296;2024-03-23T09:26:18;94129.91;;;20.02;28.69
6024;BME280;3040;42.654;23.296;2024-03-23T09:28:44;94126.41;;;20.05;27.87
6024;BME280;3040;42.654;23.296;2024-03-23T09:31:10;94059.91;;;19.81;27.61
6024;BME280;3040;42.654;23.296;2024-03-23T09:33:41;94114.75;;;20.15;28.55
6024;BME280;3040;42.654;23.296;2024-03-23T09:36:08;94119.63;;;20.31;28.79
6024;BME280;3040;42.654;23.296;2024-03-23T09:38:34;94110.84;;;20.61;27.94
6024;BME280;3040;42.654;23.296;2024-03-23T09:41:06;94106.97;;;20.92;27.95
6024;BME280;3040;42.654;23.296;2024-03-23T09:43:32;94102.16;;;21.07;28.30
6024;BME280;3040;42.654;23.296;2024-03-23T09:46:00;94102.94;;;21.34;27.53
6024;BME280;3040;42.654;23.296;2024-03-23T09:48:27;94100.31;;;21.58;26.19
6024;BME280;3040;42.654;23.296;2024-03-23T09:50:55;94101.72;;;21.66;27.48
6024;BME280;3040;42.654;23.296;2024-03-23T09:53:21;94076.69;;;21.58;27.19
6024;BME280;3040;42.654;23.296;2024-03-23T09:55:48;94089.25;;;22.18;26.92
6024;BME280;3040;42.654;23.296;2024-03-23T09:58:16;94095.22;;;22.53;25.60
6024;BME280;3040;42.654;23.296;2024-03-23T10:00:43;94092.47;;;22.76;25.40
6024;BME280;3040;42.654;23.296;2024-03-23T10:03:09;94083.72;;;23.04;25.16
6024;BME280;3040;42.654;23.296;2024-03-23T10:05:37;94032.56;;;22.67;24.03
6024;BME280;3040;42.654;23.296;2024-03-23T10:08:17;94073.53;;;22.92;24.54
6024;BME280;3040;42.654;23.296;2024-03-23T10:10:45;94069.00;;;22.66;24.41
6024;BME280;3040;42.654;23.296;2024-03-23T10:13:11;94069.59;;;22.77;24.07
6024;BME280;3040;42.654;23.296;2024-03-23T10:15:38;94060.31;;;22.94;24.84
6024;BME280;3040;42.654;23.296;2024-03-23T10:18:17;93991.06;;;22.90;24.28
6024;BME280;3040;42.654;23.296;2024-03-23T10:20:50;94058.41;;;21.89;24.46
6024;BME280;3040;42.654;23.296;2024-03-23T10:23:17;94056.53;;;22.09;24.52
6024;BME280;3040;42.654;23.296;2024-03-23T10:25:44;94041.97;;;22.62;23.98
6024;BME280;3040;42.654;23.296;2024-03-23T10:28:11;93967.50;;;22.67;22.88
6024;BME280;3040;42.654;23.296;2024-03-23T10:30:38;94029.38;;;23.60;22.28
6024;BME280;3040;42.654;23.296;2024-03-23T10:33:07;94035.09;;;24.11;23.05
6024;BME280;3040;42.654;23.296;2024-03-23T10:35:34;94037.75;;;24.43;22.67
6024;BME280;3040;42.654;23.296;2024-03-23T10:38:01;94029.53;;;24.59;21.98
6024;BME280;3040;42.654;23.296;2024-03-23T10:40:30;94020.69;;;24.97;20.99
6024;BME280;3040;42.654;23.296;2024-03-23T10:42:57;94014.94;;;25.33;20.78
6024;BME280;3040;42.654;23.296;2024-03-23T10:45:25;94009.91;;;25.44;20.65
6024;BME280;3040;42.654;23.296;2024-03-23T10:47:51;94009.81;;;25.73;19.73
6024;BME280;3040;42.654;23.296;2024-03-23T10:50:18;94003.41;;;25.16;20.87
6024;BME280;3040;42.654;23.296;2024-03-23T10:52:46;93994.59;;;25.37;20.27
6024;BME280;3040;42.654;23.296;2024-03-23T10:55:15;93989.84;;;25.76;20.64
6024;BME280;3040;42.654;23.296;2024-03-23T10:57:47;93990.34;;;25.96;20.01
6024;BME280;3040;42.654;23.296;2024-03-23T11:00:15;93979.31;;;24.77;20.29
6024;BME280;3040;42.654;23.296;2024-03-23T11:02:41;93978.28;;;24.45;20.86
6024;BME280;3040;42.654;23.296;2024-03-23T11:05:28;93970.81;;;24.74;20.46
6024;BME280;3040;42.654;23.296;2024-03-23T11:07:54;93947.66;;;24.83;20.62
6024;BME280;3040;42.654;23.296;2024-03-23T11:10:25;93956.56;;;25.46;19.94
6024;BME280;3040;42.654;23.296;2024-03-23T11:12:53;93945.56;;;24.74;20.35
6024;BME280;3040;42.654;23.296;2024-03-23T11:15:20;93948.75;;;24.98;20.04
6024;BME280;3040;42.654;23.296;2024-03-23T11:18:02;93940.69;;;24.82;20.51
6024;BME280;3040;42.654;23.296;2024-03-23T11:20:34;93931.66;;;24.85;20.93
6024;BME280;3040;42.654;23.296;2024-03-23T11:23:00;93936.91;;;24.92;20.75
6024;BME280;3040;42.654;23.296;2024-03-23T11:25:27;93927.16;;;23.99;21.25
6024;BME280;3040;42.654;23.296;2024-03-23T11:27:56;93929.69;;;24.72;21.15
6024;BME280;3040;42.654;23.296;2024-03-23T11:30:24;93927.72;;;25.36;20.87
6024;BME280;3040;42.654;23.296;2024-03-23T11:32:51;93916.53;;;24.17;21.03
6024;BME280;3040;42.654;23.296;2024-03-23T11:35:26;93910.63;;;24.06;22.48
6024;BME280;3040;42.654;23.296;2024-03-23T11:38:05;93913.50;;;24.15;21.28
6024;BME280;3040;42.654;23.296;2024-03-23T11:40:32;93902.25;;;24.29;21.86
6024;BME280;3040;42.654;23.296;2024-03-23T11:43:01;93885.00;;;24.99;21.11
6024;BME280;3040;42.654;23.296;2024-03-23T11:45:35;93886.56;;;25.69;20.42
6024;BME280;3040;42.654;23.296;2024-03-23T11:48:03;93887.41;;;26.44;22.53
6024;BME280;3040;42.654;23.296;2024-03-23T11:50:29;93869.59;;;26.61;21.21
6024;BME280;3040;42.654;23.296;2024-03-23T11:53:07;93886.13;;;26.97;20.05
6024;BME280;3040;42.654;23.296;2024-03-23T11:55:39;93859.31;;;27.05;19.49
6024;BME280;3040;42.654;23.296;2024-03-23T11:58:07;93802.13;;;27.01;21.01
6024;BME280;3040;42.654;23.296;2024-03-23T12:00:34;93870.50;;;27.83;19.48
6024;BME280;3040;42.654;23.296;2024-03-23T12:03:00;93863.81;;;27.84;18.19
6024;BME280;3040;42.654;23.296;2024-03-23T12:05:27;93857.13;;;27.76;18.18
6024;BME280;3040;42.654;23.296;2024-03-23T12:07:53;93859.81;;;28.04;17.34
6024;BME280;3040;42.654;23.296;2024-03-23T12:10:20;93848.75;;;27.98;17.28
6024;BME280;3040;42.654;23.296;2024-03-23T12:12:46;93734.38;;;26.42;17.74
6024;BME280;3040;42.654;23.296;2024-03-23T12:15:15;93835.13;;;27.52;18.70
6024;BME280;3040;42.654;23.296;2024-03-23T12:17:40;93831.31;;;27.96;17.23
6024;BME280;3040;42.654;23.296;2024-03-23T12:20:08;93832.50;;;27.85;16.70
6024;BME280;3040;42.654;23.296;2024-03-23T12:22:33;93836.50;;;27.84;17.01
6024;BME280;3040;42.654;23.296;2024-03-23T12:25:00;93836.91;;;28.01;16.91
6024;BME280;3040;42.654;23.296;2024-03-23T12:27:27;93814.22;;;26.82;15.57
6024;BME280;3040;42.654;23.296;2024-03-23T12:29:54;93827.38;;;27.51;15.83
6024;BME280;3040;42.654;23.296;2024-03-23T12:32:21;93811.84;;;28.03;15.54
6024;BME280;3040;42.654;23.296;2024-03-23T12:34:48;93823.44;;;27.52;16.23
6024;BME280;3040;42.654;23.296;2024-03-23T12:37:14;93796.59;;;26.74;15.11
6024;BME280;3040;42.654;23.296;2024-03-23T12:39:42;93805.81;;;25.97;17.52
6024;BME280;3040;42.654;23.296;2024-03-23T12:42:08;93797.25;;;26.16;16.23
6024;BME280;3040;42.654;23.296;2024-03-23T12:44:35;93782.88;;;25.63;17.87
6024;BME280;3040;42.654;23.296;2024-03-23T12:47:00;93779.53;;;26.43;17.58
6024;BME280;3040;42.654;23.296;2024-03-23T12:49:28;93766.00;;;24.65;20.31
6024;BME280;3040;42.654;23.296;2024-03-23T12:51:56;93776.34;;;22.46;19.42
6024;BME280;3040;42.654;23.296;2024-03-23T12:54:23;93772.63;;;23.18;21.66
6024;BME280;3040;42.654;23.296;2024-03-23T12:56:48;93773.53;;;22.82;20.12
6024;BME280;3040;42.654;23.296;2024-03-23T12:59:15;93754.16;;;23.12;20.91
6024;BME280;3040;42.654;23.296;2024-03-23T13:01:42;93766.75;;;22.90;21.74
6024;BME280;3040;42.654;23.296;2024-03-23T13:04:08;93755.63;;;23.71;19.06
6024;BME280;3040;42.654;23.296;2024-03-23T13:06:37;93762.78;;;24.79;20.16
6024;BME280;3040;42.654;23.296;2024-03-23T13:09:03;93757.09;;;24.52;17.69
6024;BME280;3040;42.654;23.296;2024-03-23T13:11:30;93744.66;;;23.21;18.43
6024;BME280;3040;42.654;23.296;2024-03-23T13:13:56;93747.00;;;23.19;17.43
6024;BME280;3040;42.654;23.296;2024-03-23T13:16:23;93735.91;;;22.68;18.37
6024;BME280;3040;42.654;23.296;2024-03-23T13:18:49;93743.97;;;23.17;16.74
6024;BME280;3040;42.654;23.296;2024-03-23T13:21:17;93739.25;;;23.87;16.80
6024;BME280;3040;42.654;23.296;2024-03-23T13:23:46;93744.84;;;24.22;16.71
6024;BME280;3040;42.654;23.296;2024-03-23T13:26:13;93665.13;;;23.36;16.96
6024;BME280;3040;42.654;23.296;2024-03-23T13:28:39;93743.41;;;24.30;17.27
6024;BME280;3040;42.654;23.296;2024-03-23T13:31:06;93735.50;;;24.83;16.69
6024;BME280;3040;42.654;23.296;2024-03-23T13:33:34;93737.00;;;23.99;17.43
6024;BME280;3040;42.654;23.296;2024-03-23T13:36:00;93722.38;;;22.52;18.09
6024;BME280;3040;42.654;23.296;2024-03-23T13:38:27;93695.81;;;23.75;17.80
6024;BME280;3040;42.654;23.296;2024-03-23T13:40:56;93726.66;;;24.79;16.93
6024;BME280;3040;42.654;23.296;2024-03-23T13:43:22;93673.19;;;24.28;16.90
6024;BME280;3040;42.654;23.296;2024-03-23T13:45:53;93662.78;;;24.61;15.92
6024;BME280;3040;42.654;23.296;2024-03-23T13:48:19;93729.16;;;25.20;15.81
6024;BME280;3040;42.654;23.296;2024-03-23T13:50:47;93716.94;;;25.03;16.23
6024;BME280;3040;42.654;23.296;2024-03-23T13:53:13;93718.59;;;24.53;19.56
6024;BME280;3040;42.654;23.296;2024-03-23T13:55:46;93705.94;;;23.45;18.24
6024;BME280;3040;42.654;23.296;2024-03-23T13:58:13;93706.22;;;23.64;18.58
6024;BME280;3040;42.654;23.296;2024-03-23T14:00:40;93706.88;;;23.68;19.18
6024;BME280;3040;42.654;23.296;2024-03-23T14:03:08;93700.25;;;23.15;18.14
6024;BME280;3040;42.654;23.296;2024-03-23T14:05:34;93681.69;;;23.80;17.67